This is the latest recevied weather packets stored in our database for station/object Krozingen. If no packets are shown the sender has not sent any weather packets the latest 10 day(s).
| Time | Temp. | Humidity | Pressure | Rain* | Wind** | Luminosity | Snow |
|---|---|---|---|---|---|---|---|
| 1777372331 | 18.33° C | 49% | 1016 hPa | 0 mm | - | - | - |
| 1777370531 | 17.22° C | 54% | 1016.3 hPa | 0 mm | - | - | - |
| 1777368731 | 16.11° C | 55% | 1016.3 hPa | 0 mm | - | - | - |
| 1777366931 | 15° C | 58% | 1016.4 hPa | 0 mm | - | - | - |
| 1777365132 | 14.44° C | 60% | 1016.3 hPa | 0 mm | - | - | - |
| 1777363331 | 14.44° C | 62% | 1016.2 hPa | 0 mm | - | - | - |
| 1777361536 | 13.89° C | 60% | 1016.2 hPa | 0 mm | - | - | - |
| 1777359732 | 12.78° C | 66% | 1016.3 hPa | 0 mm | - | - | - |
| 1777357931 | 11.67° C | 69% | 1016.4 hPa | 0 mm | - | - | - |
| 1777356133 | 10.56° C | 78% | 1016.4 hPa | 0 mm | - | - | - |
| 1777354331 | 9.44° C | 80% | 1016.4 hPa | 0 mm | - | - | - |
| 1777352531 | 8.33° C | 84% | 1016.2 hPa | 0 mm | - | - | - |
| 1777350732 | 8.33° C | 84% | 1016.2 hPa | 0 mm | - | - | - |
| 1777348932 | 8.33° C | 82% | 1016.1 hPa | 0 mm | - | - | - |
| 1777347133 | 8.89° C | 79% | 1016 hPa | 0 mm | - | - | - |
| 1777345331 | 9.44° C | 80% | 1016.3 hPa | 0 mm | - | - | - |
| 1777343532 | 8.89° C | 80% | 1016.2 hPa | 0 mm | - | - | - |
| 1777341732 | 8.89° C | 80% | 1016.5 hPa | 0 mm | - | - | - |
| 1777339933 | 9.44° C | 78% | 1016.6 hPa | 0 mm | - | - | - |
| 1777338131 | 9.44° C | 79% | 1016.7 hPa | 0 mm | - | - | - |
| 1777336329 | 10° C | 78% | 1016.9 hPa | 0 mm | - | - | - |
| 1777334529 | 10° C | 78% | 1017.1 hPa | 0 mm | - | - | - |
| 1777332730 | 10.56° C | 77% | 1017 hPa | 0 mm | - | - | - |
| 1777330929 | 11.11° C | 75% | 1017 hPa | 0 mm | - | - | - |
| 1777329129 | 11.67° C | 74% | 1016.9 hPa | 0 mm | - | - | - |
* Rain since midnight (hover to see other rain measurements)
** Current wind speed in m/s (hover to see current wind gust speed)